createdAt,value
2023-03-12T00:01:47.276Z,1.60
2023-03-12T00:04:13.802Z,1.75
2023-03-12T00:06:40.334Z,1.63
2023-03-12T00:09:06.997Z,2.10
2023-03-12T00:11:33.545Z,1.83
2023-03-12T00:14:00.293Z,1.80
2023-03-12T00:16:27.437Z,1.80
2023-03-12T00:18:54.945Z,1.80
2023-03-12T00:21:22.523Z,2.03
2023-03-12T00:23:49.593Z,1.77
2023-03-12T00:26:17.263Z,1.70
2023-03-12T00:28:44.151Z,2.28
2023-03-12T00:31:32.723Z,2.00
2023-03-12T00:34:00.947Z,1.85
2023-03-12T00:36:29.963Z,2.17
2023-03-12T00:38:58.120Z,1.75
2023-03-12T00:41:25.558Z,1.98
2023-03-12T00:43:52.568Z,2.03
2023-03-12T00:46:19.864Z,1.77
2023-03-12T00:48:46.611Z,1.50
2023-03-12T00:51:13.128Z,1.65
2023-03-12T00:53:39.821Z,2.17
2023-03-12T00:56:06.907Z,1.63
2023-03-12T00:58:33.451Z,1.63
2023-03-12T01:01:00.121Z,2.00
2023-03-12T01:03:35.815Z,1.70
2023-03-12T01:06:02.364Z,2.33
2023-03-12T01:08:28.927Z,1.65
2023-03-12T01:10:55.572Z,2.10
2023-03-12T01:13:22.422Z,2.03
2023-03-12T01:15:48.999Z,2.17
2023-03-12T01:18:15.641Z,2.10
2023-03-12T01:20:42.315Z,1.70
2023-03-12T01:23:09.514Z,1.70
2023-03-12T01:25:36.805Z,1.65
2023-03-12T01:28:04.004Z,1.70
2023-03-12T01:30:30.708Z,1.38
2023-03-12T01:32:57.440Z,1.90
2023-03-12T01:35:24.895Z,1.63
2023-03-12T01:37:52.533Z,1.80
2023-03-12T01:40:21.209Z,1.80
2023-03-12T01:42:58.612Z,1.60
2023-03-12T01:46:03.269Z,1.63
2023-03-12T01:48:34.543Z,1.60
2023-03-12T01:51:08.678Z,1.50
2023-03-12T01:53:35.326Z,1.30
2023-03-12T01:56:02.158Z,1.48
2023-03-12T01:58:31.102Z,1.42
2023-03-12T02:00:57.745Z,1.45
2023-03-12T02:03:24.535Z,1.60
2023-03-12T02:06:07.366Z,1.40
2023-03-12T02:08:37.209Z,1.45
2023-03-12T02:11:03.945Z,1.50
2023-03-12T02:13:30.564Z,1.67
2023-03-12T02:15:57.129Z,1.40
2023-03-12T02:18:23.962Z,1.40
2023-03-12T02:20:57.151Z,1.50
2023-03-12T02:23:30.840Z,1.20
2023-03-12T02:25:57.894Z,1.40
2023-03-12T02:28:28.329Z,1.30
2023-03-12T02:30:59.043Z,1.20
2023-03-12T02:33:26.301Z,1.20
2023-03-12T02:35:53.281Z,1.20
2023-03-12T02:38:45.030Z,1.02
2023-03-12T02:41:11.539Z,0.98
2023-03-12T02:43:39.025Z,1.20
2023-03-12T02:46:06.540Z,0.90
2023-03-12T02:48:33.178Z,0.90
2023-03-12T02:50:59.789Z,1.10
2023-03-12T02:53:26.615Z,1.40
2023-03-12T02:55:53.218Z,0.90
2023-03-12T02:58:19.786Z,1.13
2023-03-12T03:00:46.334Z,1.02
2023-03-12T03:03:13.254Z,0.93
2023-03-12T03:05:39.800Z,1.10
2023-03-12T03:08:06.850Z,0.90
2023-03-12T03:10:33.497Z,0.88
2023-03-12T03:13:00.066Z,0.95
2023-03-12T03:15:27.214Z,1.00
2023-03-12T03:17:53.765Z,1.05
2023-03-12T03:20:21.366Z,1.20
2023-03-12T03:22:48.453Z,1.15
2023-03-12T03:25:15.914Z,0.95
2023-03-12T03:27:42.529Z,1.02
2023-03-12T03:30:12.060Z,1.00
2023-03-12T03:32:38.684Z,1.00
2023-03-12T03:35:05.706Z,0.77
2023-03-12T03:37:32.287Z,0.98
2023-03-12T03:39:58.914Z,0.90
2023-03-12T03:42:25.593Z,0.77
2023-03-12T03:44:52.080Z,0.93
2023-03-12T03:47:18.712Z,0.63
2023-03-12T03:49:45.599Z,0.63
2023-03-12T03:52:12.203Z,1.10
2023-03-12T03:54:38.703Z,0.70
2023-03-12T03:57:05.281Z,0.65
2023-03-12T03:59:31.861Z,1.00
2023-03-12T04:01:58.376Z,0.95
2023-03-12T04:04:25.096Z,0.73
2023-03-12T04:06:51.660Z,0.80
2023-03-12T04:09:18.271Z,0.73
2023-03-12T04:11:44.834Z,0.88
2023-03-12T04:14:31.538Z,0.65
2023-03-12T04:16:58.093Z,0.70
2023-03-12T04:19:24.619Z,0.65
2023-03-12T04:21:51.166Z,0.73
2023-03-12T04:24:20.414Z,0.75
2023-03-12T04:26:47.019Z,0.70
2023-03-12T04:29:14.327Z,0.90
2023-03-12T04:31:40.955Z,0.70
2023-03-12T04:34:07.622Z,0.90
2023-03-12T04:36:34.143Z,0.80
2023-03-12T04:39:00.639Z,0.80
2023-03-12T04:41:27.165Z,0.60
2023-03-12T04:43:53.748Z,0.90
2023-03-12T04:46:21.265Z,0.60
2023-03-12T04:48:47.818Z,0.80
2023-03-12T04:51:14.424Z,0.70
2023-03-12T04:53:41.078Z,0.70
2023-03-12T04:56:07.959Z,0.90
2023-03-12T04:58:35.854Z,0.85
2023-03-12T05:01:02.703Z,0.90
2023-03-12T05:03:29.344Z,0.80
2023-03-12T05:05:55.914Z,0.73
2023-03-12T05:08:22.406Z,0.80
2023-03-12T05:10:49.013Z,0.70
2023-03-12T05:13:20.799Z,0.80
2023-03-12T05:15:49.009Z,0.80
2023-03-12T05:18:15.674Z,0.90
2023-03-12T05:20:42.313Z,1.10
2023-03-12T05:23:08.804Z,0.80
2023-03-12T05:25:39.386Z,0.80
2023-03-12T05:28:05.969Z,0.88
2023-03-12T05:30:32.565Z,1.00
2023-03-12T05:32:59.090Z,0.82
2023-03-12T05:35:25.657Z,1.10
2023-03-12T05:37:52.137Z,0.85
2023-03-12T05:40:18.696Z,0.98
2023-03-12T05:42:45.198Z,1.02
2023-03-12T05:45:11.735Z,1.10
2023-03-12T05:47:38.263Z,1.00
2023-03-12T05:50:05.294Z,0.95
2023-03-12T05:52:31.781Z,0.90
2023-03-12T05:54:58.330Z,1.00
2023-03-12T05:57:24.880Z,1.00
2023-03-12T05:59:51.689Z,0.80
2023-03-12T06:02:18.304Z,0.88
2023-03-12T06:04:44.803Z,0.95
2023-03-12T06:07:11.487Z,0.80
2023-03-12T06:09:38.085Z,0.80
2023-03-12T06:12:05.022Z,0.90
2023-03-12T06:14:31.597Z,1.13
2023-03-12T06:16:58.120Z,0.90
2023-03-12T06:19:24.646Z,0.85
2023-03-12T06:21:51.160Z,0.80
2023-03-12T06:24:17.743Z,0.70
2023-03-12T06:26:44.330Z,0.70
2023-03-12T06:29:16.877Z,0.80
2023-03-12T06:31:44.239Z,0.82
2023-03-12T06:34:10.986Z,0.90
2023-03-12T06:36:37.555Z,1.00
2023-03-12T06:39:06.484Z,0.98
2023-03-12T06:41:33.851Z,1.10
2023-03-12T06:44:01.846Z,1.40
2023-03-12T06:46:28.414Z,0.90
2023-03-12T06:48:55.245Z,1.30
2023-03-12T06:51:21.764Z,1.20
2023-03-12T06:53:48.367Z,1.25
2023-03-12T06:56:15.007Z,1.20
2023-03-12T06:58:41.951Z,1.13
2023-03-12T07:01:08.656Z,1.45
2023-03-12T07:03:35.532Z,1.10
2023-03-12T07:06:02.247Z,1.50
2023-03-12T07:08:32.024Z,1.25
2023-03-12T07:11:01.799Z,1.17
2023-03-12T07:13:28.896Z,1.42
2023-03-12T07:15:55.512Z,0.93
2023-03-12T07:18:22.134Z,1.00
2023-03-12T07:20:48.654Z,1.40
2023-03-12T07:23:15.400Z,1.00
2023-03-12T07:25:42.933Z,1.20
2023-03-12T07:28:10.441Z,1.02
2023-03-12T07:30:37.246Z,1.20
2023-03-12T07:33:04.951Z,0.90
2023-03-12T07:35:32.848Z,1.33
2023-03-12T07:38:00.332Z,1.10
2023-03-12T07:40:27.544Z,1.20
2023-03-12T07:42:54.028Z,1.10
2023-03-12T07:45:21.666Z,1.25
2023-03-12T07:47:48.670Z,1.00
2023-03-12T07:50:16.302Z,1.20
2023-03-12T07:52:42.877Z,1.33
2023-03-12T07:55:10.398Z,1.10
2023-03-12T07:57:37.786Z,1.40
2023-03-12T08:00:07.348Z,1.10
2023-03-12T08:02:34.657Z,1.20
2023-03-12T08:05:01.291Z,1.08
2023-03-12T08:07:32.315Z,1.23
2023-03-12T08:10:00.221Z,0.88
2023-03-12T08:12:27.512Z,1.38
2023-03-12T08:14:54.118Z,1.10
2023-03-12T08:17:20.785Z,1.30
2023-03-12T08:19:48.633Z,1.20
2023-03-12T08:22:15.436Z,1.48
2023-03-12T08:24:42.827Z,1.00
2023-03-12T08:27:09.809Z,1.38
2023-03-12T08:29:36.496Z,1.10
2023-03-12T08:32:05.219Z,0.90
2023-03-12T08:34:33.815Z,1.10
2023-03-12T08:37:00.534Z,1.00
2023-03-12T08:39:27.145Z,1.13
2023-03-12T08:41:55.433Z,0.95
2023-03-12T08:44:23.360Z,1.00
2023-03-12T08:46:50.322Z,0.90
2023-03-12T08:49:16.955Z,0.88
2023-03-12T08:51:43.849Z,0.70
2023-03-12T08:54:10.494Z,0.80
2023-03-12T08:56:41.855Z,1.27
2023-03-12T08:59:09.941Z,1.00
2023-03-12T09:01:36.626Z,1.17
2023-03-12T09:04:04.231Z,0.80
2023-03-12T09:06:31.122Z,0.95
2023-03-12T09:08:57.755Z,1.40
2023-03-12T09:11:24.295Z,1.30
2023-03-12T09:16:37.362Z,1.10
2023-03-12T09:19:04.145Z,1.15
2023-03-12T09:21:31.011Z,1.30
2023-03-12T09:23:57.808Z,1.23
2023-03-12T09:26:24.453Z,1.40
2023-03-12T09:28:51.156Z,1.10
2023-03-12T09:31:17.839Z,1.55
2023-03-12T09:33:45.276Z,1.33
2023-03-12T09:36:11.919Z,1.60
2023-03-12T09:38:38.970Z,1.13
2023-03-12T09:41:06.465Z,1.48
2023-03-12T09:43:41.312Z,1.15
2023-03-12T09:46:33.620Z,1.50
2023-03-12T09:49:02.529Z,1.20
2023-03-12T09:51:36.566Z,1.25
2023-03-12T09:54:06.420Z,1.30
2023-03-12T09:56:33.803Z,1.35
2023-03-12T09:59:00.739Z,1.20
2023-03-12T10:01:27.318Z,1.50
2023-03-12T10:04:15.547Z,1.33
2023-03-12T10:06:49.214Z,1.40
2023-03-12T10:09:21.867Z,1.33
2023-03-12T10:12:10.551Z,1.30
2023-03-12T10:15:01.786Z,1.35
2023-03-12T10:18:08.844Z,1.58
2023-03-12T10:20:45.240Z,1.88
2023-03-12T10:23:18.612Z,1.60
2023-03-12T10:26:03.803Z,1.40
2023-03-12T10:28:46.266Z,1.60
2023-03-12T10:31:19.343Z,1.38
2023-03-12T10:34:00.113Z,1.33
2023-03-12T10:36:40.267Z,1.30
2023-03-12T10:39:19.787Z,1.50
2023-03-12T10:41:48.047Z,1.23
2023-03-12T10:44:20.340Z,1.30
2023-03-12T10:47:17.242Z,1.23
2023-03-12T10:49:46.723Z,1.17
2023-03-12T10:52:17.409Z,1.45
2023-03-12T10:54:46.989Z,1.65
2023-03-12T10:57:21.284Z,1.27
2023-03-12T10:59:49.853Z,1.40
2023-03-12T11:02:32.235Z,1.20
2023-03-12T11:04:59.714Z,1.67
2023-03-12T11:07:35.866Z,1.67
2023-03-12T11:10:08.197Z,1.27
2023-03-12T11:12:36.686Z,1.10
2023-03-12T11:15:25.196Z,1.25
2023-03-12T11:17:52.112Z,1.30
2023-03-12T11:20:25.631Z,1.35
2023-03-12T11:22:52.194Z,1.30
2023-03-12T11:25:28.908Z,1.50
2023-03-12T11:27:58.199Z,1.42
2023-03-12T11:30:30.127Z,1.45
2023-03-12T11:32:58.227Z,1.60
2023-03-12T11:35:34.698Z,1.50
2023-03-12T11:38:11.128Z,1.55
2023-03-12T11:40:52.957Z,1.17
2023-03-12T11:46:18.176Z,1.80
2023-03-12T11:48:53.889Z,1.10
2023-03-12T11:51:49.906Z,1.27
2023-03-12T11:54:41.495Z,1.13
2023-03-12T11:57:47.721Z,0.95
2023-03-12T12:00:16.148Z,1.13
2023-03-12T12:02:58.281Z,0.90
2023-03-12T12:05:38.294Z,1.10
2023-03-12T12:08:35.938Z,1.10
2023-03-12T12:11:16.966Z,0.80
2023-03-12T12:13:58.113Z,1.00
2023-03-12T12:16:56.215Z,1.08
2023-03-12T12:19:32.058Z,1.00
2023-03-12T12:22:17.508Z,1.00
2023-03-12T12:24:59.299Z,1.35
2023-03-12T12:30:14.016Z,1.25
2023-03-12T12:32:40.494Z,1.45
2023-03-12T12:35:27.876Z,1.20
2023-03-12T12:38:23.121Z,1.08
2023-03-12T12:41:03.655Z,1.30
2023-03-12T12:43:37.726Z,1.10
2023-03-12T12:46:13.083Z,1.02
2023-03-12T12:48:53.117Z,1.25
2023-03-12T12:51:21.807Z,1.10
2023-03-12T12:54:01.762Z,1.02
2023-03-12T12:56:35.113Z,0.77
2023-03-12T12:59:16.694Z,1.00
2023-03-12T13:01:43.641Z,0.80
2023-03-12T13:04:13.821Z,0.90
2023-03-12T13:07:12.043Z,1.10
2023-03-12T13:09:47.073Z,1.13
2023-03-12T13:12:44.549Z,1.13
2023-03-12T13:15:49.770Z,1.20
2023-03-12T13:18:28.313Z,1.15
2023-03-12T13:20:54.853Z,0.80
2023-03-12T13:23:51.802Z,1.13
2023-03-12T13:26:45.756Z,1.27
2023-03-12T13:29:19.763Z,1.02
2023-03-12T13:31:46.456Z,1.23
2023-03-12T13:34:15.746Z,1.20
2023-03-12T13:36:44.680Z,1.10
2023-03-12T13:39:19.792Z,1.10
2023-03-12T13:41:49.948Z,1.13
2023-03-12T13:44:23.702Z,1.60
2023-03-12T13:47:03.852Z,1.40
2023-03-12T13:49:56.377Z,1.50
2023-03-12T13:52:37.941Z,1.40
2023-03-12T13:55:13.483Z,1.40
2023-03-12T13:57:46.392Z,1.40
2023-03-12T14:00:29.048Z,1.50
2023-03-12T14:03:05.096Z,1.40
2023-03-12T14:05:34.889Z,1.30
2023-03-12T14:08:43.963Z,1.20
2023-03-12T14:11:29.422Z,1.67
2023-03-12T14:14:05.126Z,1.83
2023-03-12T14:16:46.177Z,1.15
2023-03-12T14:19:13.802Z,1.30
2023-03-12T14:21:43.797Z,1.30
2023-03-12T14:24:27.467Z,1.30
2023-03-12T14:26:55.386Z,1.42
2023-03-12T14:29:27.549Z,1.20
2023-03-12T14:32:02.508Z,1.20
2023-03-12T14:34:33.680Z,1.00
2023-03-12T14:37:05.937Z,1.23
2023-03-12T14:39:39.763Z,1.00
2023-03-12T14:42:08.017Z,0.80
2023-03-12T14:44:39.554Z,0.82
2023-03-12T14:47:10.133Z,0.75
2023-03-12T14:49:46.913Z,1.25
2023-03-12T14:52:27.558Z,0.93
2023-03-12T14:54:58.946Z,0.70
2023-03-12T14:57:26.128Z,0.80
2023-03-12T14:59:54.919Z,0.93
2023-03-12T15:02:22.978Z,0.70
2023-03-12T15:04:54.153Z,0.90
2023-03-12T15:07:39.611Z,1.00
2023-03-12T15:10:16.316Z,0.75
2023-03-12T15:12:45.240Z,0.77
2023-03-12T15:15:27.386Z,0.73
2023-03-12T15:17:54.228Z,0.70
2023-03-12T15:20:21.458Z,0.60
2023-03-12T15:22:49.534Z,0.57
2023-03-12T15:25:26.345Z,0.50
2023-03-12T15:28:03.026Z,0.52
2023-03-12T15:30:31.395Z,0.60
2023-03-12T15:33:27.544Z,0.50
2023-03-12T15:36:01.804Z,0.50
2023-03-12T15:38:29.095Z,0.50
2023-03-12T15:40:59.579Z,0.40
2023-03-12T15:43:29.174Z,0.50
2023-03-12T15:46:01.210Z,0.43
2023-03-12T15:48:34.845Z,0.70
2023-03-12T15:51:01.696Z,0.45
2023-03-12T15:53:31.301Z,0.60
2023-03-12T15:56:01.975Z,0.60
2023-03-12T15:58:39.809Z,0.77
2023-03-12T16:01:14.784Z,0.60
2023-03-12T16:03:43.019Z,0.98
2023-03-12T16:06:12.753Z,0.90
2023-03-12T16:08:52.712Z,0.50
2023-03-12T16:11:24.819Z,0.70
2023-03-12T16:13:54.063Z,1.08
2023-03-12T16:16:20.689Z,0.90
2023-03-12T16:18:47.213Z,0.77
2023-03-12T16:21:13.942Z,0.88
2023-03-12T16:23:40.528Z,0.80
2023-03-12T16:26:07.271Z,0.77
2023-03-12T16:28:35.496Z,0.45
2023-03-12T16:31:02.680Z,0.60
2023-03-12T16:33:29.516Z,0.70
2023-03-12T16:35:56.197Z,0.60
2023-03-12T16:38:24.272Z,0.88
2023-03-12T16:40:52.052Z,0.70
2023-03-12T23:35:02.438Z,1.20
2023-03-12T23:37:29.091Z,1.40
2023-03-12T23:39:55.642Z,1.30
2023-03-12T23:42:22.249Z,1.38
2023-03-12T23:44:48.937Z,1.60
2023-03-12T23:47:15.507Z,1.40
2023-03-12T23:49:42.066Z,1.33
2023-03-12T23:52:08.620Z,1.75
2023-03-12T23:54:35.930Z,1.55
2023-03-12T23:57:02.750Z,1.50
2023-03-12T23:59:29.356Z,1.40
